Time;durP1;ratioP1;P1;durP2;ratioP2;P2;SDS_P1;SDS_P2;PMS_P1;PMS_P2;Temp;Humidity;BMP_temperature;BMP_pressure;BME280_temperature;BME280_humidity;BME280_pressure;Samples;Min_cycle;Max_cycle;Signal;HPM_P1;HPM_P2
2024/03/07 00:02:12;;;;;;;24.57;15.83;;;4.20;99.90;;;;;;5017305;28;20471;-63
2024/03/07 00:04:40;;;;;;;24.40;15.40;;;4.30;99.90;;;;;;5016847;28;20483;-63
2024/03/07 00:07:09;;;;;;;20.63;15.33;;;4.30;99.90;;;;;;5015868;28;20472;-63
2024/03/07 00:09:37;;;;;;;23.27;15.97;;;4.30;99.90;;;;;;5015556;28;20570;-63
2024/03/07 00:12:07;;;;;;;22.20;15.30;;;4.30;99.90;;;;;;5014949;28;20543;-63
2024/03/07 00:14:35;;;;;;;20.90;14.17;;;4.30;99.90;;;;;;5013399;28;20603;-62
2024/03/07 00:17:03;;;;;;;20.57;13.20;;;4.40;99.90;;;;;;5016636;28;21058;-63
2024/03/07 00:19:33;;;;;;;21.27;14.20;;;4.40;99.90;;;;;;5016186;28;20490;-62
2024/03/07 00:22:01;;;;;;;17.60;13.37;;;4.50;99.90;;;;;;5017296;28;20507;-63
2024/03/07 00:24:29;;;;;;;19.87;14.37;;;4.50;99.90;;;;;;5012959;28;20515;-62
2024/03/07 00:26:57;;;;;;;17.37;13.57;;;4.50;99.90;;;;;;5015595;28;20551;-63
2024/03/07 00:29:25;;;;;;;18.63;13.20;;;4.50;99.90;;;;;;5013028;28;20504;-63
2024/03/07 00:31:53;;;;;;;17.70;13.53;;;4.50;99.90;;;;;;5016294;28;20482;-62
2024/03/07 00:34:23;;;;;;;18.00;13.60;;;4.50;99.90;;;;;;5010226;28;20857;-63
2024/03/07 00:36:56;;;;;;;19.50;13.57;;;4.50;99.90;;;;;;5014562;28;20475;-63
2024/03/07 00:39:24;;;;;;;19.67;13.50;;;4.60;99.90;;;;;;5017436;28;20484;-62
2024/03/07 00:41:52;;;;;;;20.00;12.70;;;4.60;99.90;;;;;;5015760;28;20557;-63
2024/03/07 00:44:20;;;;;;;19.93;13.50;;;4.60;99.90;;;;;;5014363;28;20470;-63
2024/03/07 00:46:48;;;;;;;21.53;14.43;;;4.70;99.90;;;;;;5017137;28;20526;-62
2024/03/07 00:49:16;;;;;;;20.70;13.93;;;4.70;99.90;;;;;;5015681;28;21086;-63
2024/03/07 00:51:44;;;;;;;18.80;13.13;;;4.70;99.90;;;;;;5015120;28;20475;-63
2024/03/07 00:54:14;;;;;;;20.43;14.07;;;4.70;99.90;;;;;;5010812;28;21019;-63
2024/03/07 00:56:42;;;;;;;19.00;14.70;;;4.80;99.90;;;;;;5015304;28;20615;-62
2024/03/07 00:59:10;;;;;;;20.37;14.27;;;4.80;99.90;;;;;;5016491;28;20526;-62
2024/03/07 01:01:38;;;;;;;19.60;14.30;;;4.80;99.90;;;;;;5018866;28;20476;-62
2024/03/07 01:04:06;;;;;;;18.47;13.53;;;4.80;99.90;;;;;;5017251;28;20581;-63
2024/03/07 01:06:34;;;;;;;21.17;14.70;;;4.80;99.90;;;;;;5015518;28;20475;-62
2024/03/07 01:09:02;;;;;;;18.90;13.73;;;4.80;99.90;;;;;;5014441;28;20923;-62
2024/03/07 01:11:32;;;;;;;23.47;15.00;;;4.90;99.90;;;;;;5016192;28;20527;-63
2024/03/07 01:14:00;;;;;;;20.10;13.37;;;4.90;99.90;;;;;;5018006;28;20558;-63
2024/03/07 01:16:28;;;;;;;21.17;14.27;;;4.90;99.90;;;;;;5015507;28;22366;-62
2024/03/07 01:18:56;;;;;;;20.30;14.33;;;4.90;99.90;;;;;;5012473;28;20582;-63
2024/03/07 01:21:24;;;;;;;21.93;14.63;;;5.00;99.90;;;;;;5016474;28;20468;-62
2024/03/07 01:23:52;;;;;;;21.93;14.13;;;4.90;99.90;;;;;;5013204;28;20479;-63
2024/03/07 01:26:20;;;;;;;22.40;16.10;;;5.00;99.90;;;;;;5009994;28;20463;-63
2024/03/07 01:28:49;;;;;;;20.37;14.33;;;5.00;99.90;;;;;;5014173;28;20486;-63
2024/03/07 01:31:18;;;;;;;28.30;17.13;;;4.90;99.90;;;;;;5016436;28;20584;-63
2024/03/07 01:33:46;;;;;;;21.90;16.47;;;5.00;99.90;;;;;;5019133;28;20538;-63
2024/03/07 01:36:14;;;;;;;20.47;15.87;;;5.00;99.90;;;;;;5018373;28;20615;-62
2024/03/07 01:38:42;;;;;;;26.27;18.07;;;5.00;99.90;;;;;;5018358;28;20564;-62
2024/03/07 01:41:10;;;;;;;27.70;17.70;;;5.00;99.90;;;;;;5019262;28;20526;-63
2024/03/07 01:43:38;;;;;;;26.23;17.83;;;5.00;99.90;;;;;;5019470;28;20485;-63
2024/03/07 01:46:08;;;;;;;24.47;16.93;;;5.00;99.90;;;;;;5013850;28;20908;-63
2024/03/07 01:48:36;;;;;;;23.67;16.27;;;5.00;99.90;;;;;;5017883;28;20476;-63
2024/03/07 01:51:05;;;;;;;22.30;17.27;;;5.10;99.90;;;;;;5016266;28;20478;-63
2024/03/07 01:53:34;;;;;;;21.10;16.40;;;5.00;99.90;;;;;;5017298;28;21977;-63
2024/03/07 01:56:03;;;;;;;25.77;18.93;;;5.10;99.90;;;;;;5017695;28;20509;-62
2024/03/07 01:58:32;;;;;;;24.87;17.70;;;5.10;99.90;;;;;;5019272;28;20474;-64
2024/03/07 02:01:00;;;;;;;21.63;16.50;;;5.10;99.90;;;;;;5017475;28;20634;-63
2024/03/07 02:03:30;;;;;;;21.27;16.70;;;5.10;99.90;;;;;;5015640;28;20988;-63
2024/03/07 02:05:58;;;;;;;23.87;17.07;;;5.10;99.90;;;;;;5016694;28;20554;-63
2024/03/07 02:08:26;;;;;;;26.63;16.87;;;5.10;99.90;;;;;;5016720;28;20995;-63
2024/03/07 02:10:54;;;;;;;20.90;16.23;;;5.10;99.90;;;;;;5017971;28;20563;-63
2024/03/07 02:13:22;;;;;;;21.30;16.77;;;5.10;99.90;;;;;;5017317;28;20481;-63
2024/03/07 02:15:50;;;;;;;27.63;17.00;;;5.10;99.90;;;;;;5020146;28;20483;-63
2024/03/07 02:18:18;;;;;;;23.77;16.33;;;5.10;99.90;;;;;;5019651;28;20532;-63
2024/03/07 02:20:48;;;;;;;23.40;17.83;;;5.10;99.90;;;;;;5012652;28;20492;-63
2024/03/07 02:23:16;;;;;;;22.90;16.47;;;5.10;99.90;;;;;;5014298;28;20917;-63
2024/03/07 02:25:44;;;;;;;27.80;16.37;;;5.10;99.90;;;;;;5016021;28;20470;-63
2024/03/07 02:28:12;;;;;;;20.70;15.60;;;5.10;99.90;;;;;;5018069;28;20496;-63
2024/03/07 02:30:40;;;;;;;22.27;15.13;;;5.10;99.90;;;;;;5016321;28;20575;-63
2024/03/07 02:33:09;;;;;;;23.13;14.87;;;5.10;99.90;;;;;;5018180;28;20587;-63
2024/03/07 02:35:38;;;;;;;24.30;14.30;;;5.10;99.90;;;;;;5006595;28;20697;-64
2024/03/07 02:38:08;;;;;;;20.70;15.20;;;5.20;99.90;;;;;;5003639;28;20467;-63
2024/03/07 02:40:36;;;;;;;19.20;14.17;;;5.10;99.90;;;;;;5009994;28;20484;-63
2024/03/07 02:43:04;;;;;;;18.43;13.93;;;5.10;99.90;;;;;;5015676;28;20500;-63
2024/03/07 02:45:33;;;;;;;18.03;13.80;;;5.10;99.90;;;;;;5017459;28;20515;-63
2024/03/07 02:48:01;;;;;;;16.93;13.43;;;5.10;99.90;;;;;;5017723;28;20491;-64
2024/03/07 02:50:30;;;;;;;22.07;13.50;;;5.10;99.90;;;;;;5015715;28;20583;-63
2024/03/07 02:52:58;;;;;;;17.10;12.87;;;5.10;99.90;;;;;;5018785;28;20467;-63
2024/03/07 02:55:27;;;;;;;17.40;13.10;;;5.10;99.90;;;;;;5014102;28;20490;-63
2024/03/07 02:57:57;;;;;;;19.83;12.67;;;5.20;99.90;;;;;;5017056;28;20494;-63
2024/03/07 03:00:29;;;;;;;15.00;12.60;;;5.10;99.90;;;;;;5014974;28;20598;-63
2024/03/07 03:02:57;;;;;;;15.63;12.40;;;5.10;99.90;;;;;;5010757;28;20568;-62
2024/03/07 03:05:25;;;;;;;13.57;10.97;;;5.10;99.90;;;;;;5010475;28;20646;-63
2024/03/07 03:07:53;;;;;;;18.30;13.50;;;5.20;99.90;;;;;;5014930;28;20958;-63
2024/03/07 03:10:25;;;;;;;18.77;13.00;;;5.10;99.90;;;;;;5014300;28;20977;-63
2024/03/07 03:12:57;;;;;;;19.50;13.27;;;5.10;99.90;;;;;;5016558;28;20977;-63
2024/03/07 03:15:25;;;;;;;15.20;12.17;;;5.10;99.90;;;;;;5034453;28;20470;-63
2024/03/07 03:17:54;;;;;;;17.50;13.53;;;5.10;99.90;;;;;;5032970;28;20463;-62
2024/03/07 03:20:33;;;;;;;15.93;11.67;;;5.10;99.90;;;;;;5034942;28;20725;-63
2024/03/07 03:23:03;;;;;;;14.17;11.90;;;5.10;99.90;;;;;;5034009;28;20555;-62
2024/03/07 03:25:35;;;;;;;15.87;12.37;;;5.10;99.90;;;;;;5015186;28;20484;-63
2024/03/07 03:28:06;;;;;;;19.67;12.50;;;5.10;99.90;;;;;;5014187;28;20472;-62
2024/03/07 03:30:34;;;;;;;14.90;11.07;;;5.10;99.90;;;;;;5017095;28;21273;-63
2024/03/07 03:33:02;;;;;;;18.10;13.97;;;5.10;99.90;;;;;;5014562;28;21366;-63
2024/03/07 03:35:30;;;;;;;17.00;12.50;;;5.10;99.90;;;;;;5010346;28;20514;-63
2024/03/07 03:37:58;;;;;;;16.90;12.73;;;5.20;99.90;;;;;;5011336;28;20556;-63
2024/03/07 03:40:26;;;;;;;17.70;12.57;;;5.10;99.90;;;;;;5012350;28;20545;-63
2024/03/07 03:42:54;;;;;;;14.80;11.83;;;5.10;99.90;;;;;;5015580;28;20976;-63
2024/03/07 03:45:25;;;;;;;16.73;13.27;;;5.10;99.90;;;;;;5014742;28;20599;-63
2024/03/07 03:47:53;;;;;;;18.50;12.80;;;5.10;99.90;;;;;;5014389;28;20476;-63
2024/03/07 03:50:22;;;;;;;19.47;12.30;;;5.10;99.90;;;;;;5013263;28;21152;-63
2024/03/07 03:52:51;;;;;;;17.30;12.03;;;5.00;99.90;;;;;;5011076;28;20459;-63
2024/03/07 03:55:20;;;;;;;18.53;13.07;;;5.00;99.90;;;;;;5011754;28;20490;-63
2024/03/07 03:57:49;;;;;;;19.73;13.10;;;5.00;99.90;;;;;;5014286;28;21080;-62
2024/03/07 04:00:18;;;;;;;14.83;12.13;;;5.00;99.90;;;;;;5014394;28;20502;-63
2024/03/07 04:02:48;;;;;;;20.40;13.63;;;5.00;99.90;;;;;;5013796;28;21081;-63
2024/03/07 04:05:18;;;;;;;18.07;13.13;;;5.00;99.90;;;;;;5009723;28;20505;-63
2024/03/07 04:07:47;;;;;;;19.30;12.30;;;5.00;99.90;;;;;;5015221;28;20463;-63
2024/03/07 04:10:17;;;;;;;14.30;11.47;;;4.90;99.90;;;;;;5014509;28;20558;-63
2024/03/07 04:12:45;;;;;;;16.00;11.67;;;4.90;99.90;;;;;;5016141;28;20863;-64
2024/03/07 04:15:16;;;;;;;17.40;11.77;;;4.90;99.90;;;;;;5012938;28;20859;-63
2024/03/07 04:17:46;;;;;;;22.10;14.60;;;5.00;99.90;;;;;;5019358;28;20915;-63
2024/03/07 04:20:17;;;;;;;14.47;11.60;;;4.90;99.90;;;;;;5012755;28;20593;-63
2024/03/07 04:22:46;;;;;;;18.10;12.33;;;4.90;99.90;;;;;;5013173;28;20534;-63
2024/03/07 04:25:14;;;;;;;17.40;12.30;;;4.90;99.90;;;;;;5014307;28;20518;-63
2024/03/07 04:27:42;;;;;;;16.67;12.47;;;4.90;99.90;;;;;;5010771;28;20464;-63
2024/03/07 04:30:11;;;;;;;17.97;13.50;;;4.90;99.90;;;;;;5011994;28;20577;-63
2024/03/07 04:32:41;;;;;;;15.00;12.00;;;4.90;99.90;;;;;;5016152;28;20575;-63
2024/03/07 04:35:10;;;;;;;15.33;11.70;;;4.90;99.90;;;;;;5013279;28;20492;-63
2024/03/07 04:37:44;;;;;;;16.37;13.40;;;4.80;99.90;;;;;;5014459;28;20586;-63
2024/03/07 04:40:15;;;;;;;15.23;12.13;;;4.80;99.90;;;;;;5011328;28;21111;-63
2024/03/07 04:42:46;;;;;;;18.60;12.87;;;4.80;99.90;;;;;;5016240;28;20476;-63
2024/03/07 04:45:15;;;;;;;14.30;12.00;;;4.70;99.90;;;;;;5012691;28;21114;-63
2024/03/07 04:47:44;;;;;;;16.07;12.80;;;4.70;99.90;;;;;;5013785;28;20468;-63
2024/03/07 04:50:16;;;;;;;16.60;12.83;;;4.70;99.90;;;;;;5013371;28;20867;-63
2024/03/07 04:52:46;;;;;;;15.90;12.43;;;4.70;99.90;;;;;;5016063;28;20476;-63
2024/03/07 04:55:16;;;;;;;17.13;14.17;;;4.60;99.90;;;;;;5012245;28;20495;-63
2024/03/07 04:57:44;;;;;;;17.87;14.03;;;4.60;99.90;;;;;;5015239;28;20590;-63
2024/03/07 05:00:14;;;;;;;15.10;12.43;;;4.60;99.90;;;;;;5013906;28;20542;-63
2024/03/07 05:02:45;;;;;;;16.57;12.80;;;4.60;99.90;;;;;;5014031;28;20467;-63
2024/03/07 05:05:14;;;;;;;15.90;12.70;;;4.60;99.90;;;;;;5014639;28;20584;-63
2024/03/07 05:07:47;;;;;;;16.97;13.03;;;4.50;99.90;;;;;;5014104;28;20468;-63
2024/03/07 05:10:15;;;;;;;17.90;13.00;;;4.50;99.90;;;;;;5012185;28;20582;-63
2024/03/07 05:12:43;;;;;;;17.67;13.30;;;4.50;99.90;;;;;;5016488;28;20468;-63
2024/03/07 05:15:11;;;;;;;22.00;13.57;;;4.40;99.90;;;;;;5013953;28;20569;-62
2024/03/07 05:17:41;;;;;;;16.93;13.20;;;4.40;99.90;;;;;;5013914;28;20488;-63
2024/03/07 05:20:12;;;;;;;14.50;12.07;;;4.30;99.90;;;;;;5015406;28;20506;-63
2024/03/07 05:22:44;;;;;;;14.67;11.37;;;4.30;99.90;;;;;;5016480;28;20486;-63
2024/03/07 05:25:16;;;;;;;15.17;11.63;;;4.30;99.90;;;;;;5011723;28;20488;-63
2024/03/07 05:27:44;;;;;;;15.33;13.10;;;4.20;99.90;;;;;;5013279;28;20468;-62
2024/03/07 05:30:15;;;;;;;16.60;12.60;;;4.20;99.90;;;;;;5013956;28;20488;-63
2024/03/07 05:32:44;;;;;;;14.40;12.33;;;4.10;99.90;;;;;;5013995;28;20464;-63
2024/03/07 05:35:12;;;;;;;13.93;11.63;;;4.00;99.90;;;;;;5010563;28;20485;-62
2024/03/07 05:37:46;;;;;;;14.70;12.00;;;4.00;99.90;;;;;;5018291;28;20499;-62
2024/03/07 05:40:16;;;;;;;16.73;11.67;;;4.00;99.90;;;;;;5010178;28;20502;-62
2024/03/07 05:42:44;;;;;;;13.53;11.00;;;4.00;99.90;;;;;;5010504;28;20518;-63
2024/03/07 05:45:14;;;;;;;15.17;12.97;;;3.90;99.90;;;;;;5014417;28;20798;-63
2024/03/07 05:47:43;;;;;;;13.80;12.30;;;3.90;99.90;;;;;;5014804;28;20491;-62
2024/03/07 05:50:18;;;;;;;13.63;12.23;;;3.90;99.90;;;;;;5010436;28;20573;-63
2024/03/07 05:52:48;;;;;;;15.47;11.73;;;3.80;99.90;;;;;;5013392;28;20542;-63
2024/03/07 05:55:19;;;;;;;14.33;11.97;;;3.80;99.90;;;;;;5017405;28;20515;-63
2024/03/07 05:57:47;;;;;;;14.30;11.60;;;3.80;99.90;;;;;;5012268;28;21259;-61
2024/03/07 06:00:26;;;;;;;14.23;12.53;;;3.80;99.90;;;;;;5010455;28;20501;-62
2024/03/07 06:02:55;;;;;;;14.43;11.90;;;3.80;99.90;;;;;;5006509;28;20462;-63
2024/03/07 06:05:23;;;;;;;15.73;13.40;;;3.80;99.90;;;;;;5008709;28;20542;-63
2024/03/07 06:07:51;;;;;;;13.87;11.40;;;3.80;99.90;;;;;;5010046;28;20832;-63
2024/03/07 06:10:23;;;;;;;17.03;12.57;;;3.80;99.90;;;;;;5012471;28;20503;-61
2024/03/07 06:12:52;;;;;;;14.17;12.17;;;3.80;99.90;;;;;;5012667;28;20683;-63
2024/03/07 06:15:38;;;;;;;16.00;12.00;;;3.70;99.90;;;;;;5019971;28;20482;-62
2024/03/07 06:18:07;;;;;;;15.80;12.70;;;3.70;99.90;;;;;;5020743;28;20498;-62
2024/03/07 06:20:36;;;;;;;14.50;12.00;;;3.70;99.90;;;;;;5018427;28;20942;-62
2024/03/07 06:23:05;;;;;;;15.57;13.80;;;3.70;99.90;;;;;;5019143;28;20475;-62
2024/03/07 06:25:36;;;;;;;15.00;11.90;;;3.70;99.90;;;;;;5020169;28;20527;-61
2024/03/07 06:28:10;;;;;;;15.50;12.77;;;3.70;99.90;;;;;;5012263;28;20480;-62
2024/03/07 06:30:39;;;;;;;16.77;13.23;;;3.70;99.90;;;;;;5015277;28;20546;-62
2024/03/07 06:33:07;;;;;;;16.03;13.13;;;3.70;99.90;;;;;;5015845;28;20916;-62
2024/03/07 06:35:36;;;;;;;17.00;11.90;;;3.70;99.90;;;;;;5012107;28;20610;-61
2024/03/07 06:38:06;;;;;;;17.40;12.87;;;3.70;99.90;;;;;;5012445;28;20498;-62
2024/03/07 06:40:36;;;;;;;15.73;13.23;;;3.80;99.90;;;;;;5016632;28;20498;-62
2024/03/07 06:43:06;;;;;;;15.00;12.60;;;3.90;99.90;;;;;;5018158;28;20471;-62
2024/03/07 06:45:35;;;;;;;15.90;12.13;;;3.80;99.90;;;;;;5016735;28;20487;-63
2024/03/07 06:48:04;;;;;;;13.90;12.40;;;3.80;99.90;;;;;;5020804;28;20472;-61
2024/03/07 06:50:32;;;;;;;16.90;12.60;;;3.80;99.90;;;;;;5017492;28;20498;-62
2024/03/07 06:53:07;;;;;;;17.20;12.87;;;3.80;99.90;;;;;;5020127;28;20994;-61
2024/03/07 06:55:38;;;;;;;18.70;12.63;;;3.80;99.90;;;;;;5019319;28;20483;-62
2024/03/07 06:58:06;;;;;;;16.10;13.60;;;3.80;99.90;;;;;;5015813;28;20950;-62
2024/03/07 07:00:36;;;;;;;14.73;12.17;;;3.80;99.90;;;;;;5017622;28;20499;-64
2024/03/07 07:03:06;;;;;;;13.60;11.37;;;3.80;99.90;;;;;;5018780;28;20563;-62
2024/03/07 07:05:35;;;;;;;14.50;12.27;;;3.80;99.90;;;;;;5019563;28;20522;-62
2024/03/07 07:08:04;;;;;;;18.50;12.37;;;3.80;99.90;;;;;;5018683;28;20459;-62
2024/03/07 07:10:32;;;;;;;16.60;11.90;;;3.80;99.90;;;;;;5017574;28;20484;-62
2024/03/07 07:13:02;;;;;;;14.93;12.70;;;3.80;99.90;;;;;;5014101;28;20553;-62
2024/03/07 07:15:30;;;;;;;16.40;12.60;;;3.80;99.90;;;;;;5017557;28;20483;-61
2024/03/07 07:17:58;;;;;;;15.10;11.40;;;3.80;99.90;;;;;;5017314;28;20488;-62
2024/03/07 07:20:27;;;;;;;14.60;11.30;;;3.80;99.90;;;;;;5019053;28;20514;-62
2024/03/07 07:22:57;;;;;;;14.80;12.17;;;3.80;99.90;;;;;;5018066;28;20474;-62
2024/03/07 07:25:27;;;;;;;14.00;11.27;;;3.70;99.90;;;;;;5017656;28;20869;-62
2024/03/07 07:27:55;;;;;;;13.23;11.47;;;3.70;99.90;;;;;;5016224;28;20674;-62
2024/03/07 07:30:26;;;;;;;12.40;11.10;;;3.70;99.90;;;;;;5018072;28;20502;-62
2024/03/07 07:32:55;;;;;;;14.83;11.00;;;3.80;99.90;;;;;;5015330;28;20474;-62
2024/03/07 07:35:23;;;;;;;14.23;11.50;;;3.80;99.90;;;;;;5017228;28;20509;-62
2024/03/07 07:37:55;;;;;;;12.23;10.40;;;3.80;99.90;;;;;;5017439;28;21019;-61
2024/03/07 07:40:27;;;;;;;14.87;11.57;;;3.80;99.90;;;;;;5018674;28;20495;-62
2024/03/07 07:42:55;;;;;;;14.60;10.07;;;3.80;99.90;;;;;;5016373;28;20474;-62
2024/03/07 07:45:25;;;;;;;12.47;11.17;;;3.80;99.90;;;;;;5017037;28;21032;-62
2024/03/07 07:47:53;;;;;;;18.70;11.40;;;3.80;99.90;;;;;;5017203;28;20482;-62
2024/03/07 07:50:24;;;;;;;14.70;11.40;;;3.80;99.90;;;;;;5017216;28;20491;-62
2024/03/07 07:52:54;;;;;;;13.00;11.10;;;3.80;99.90;;;;;;5016119;28;20472;-62
2024/03/07 07:55:23;;;;;;;13.80;11.23;;;3.80;99.90;;;;;;5016366;28;20569;-62
2024/03/07 07:57:54;;;;;;;14.93;11.07;;;3.80;99.90;;;;;;5016660;28;21759;-62
2024/03/07 08:00:25;;;;;;;14.37;11.67;;;3.80;99.90;;;;;;5018162;28;20491;-62
2024/03/07 08:02:54;;;;;;;13.33;10.40;;;3.80;99.90;;;;;;5015842;28;20482;-62
2024/03/07 08:05:25;;;;;;;13.23;10.07;;;3.80;99.90;;;;;;5016382;28;20491;-62
2024/03/07 08:07:54;;;;;;;15.07;12.20;;;3.90;99.90;;;;;;5016372;28;20562;-62
2024/03/07 08:10:24;;;;;;;14.33;11.20;;;3.90;99.90;;;;;;5016453;28;20495;-61
2024/03/07 08:12:52;;;;;;;15.00;11.40;;;3.90;99.90;;;;;;5017016;28;20498;-62
2024/03/07 08:15:21;;;;;;;17.20;12.10;;;3.90;99.90;;;;;;5018484;28;20487;-61
2024/03/07 08:17:51;;;;;;;14.30;11.67;;;3.90;99.90;;;;;;5017955;28;20558;-60
2024/03/07 08:20:22;;;;;;;15.70;12.27;;;3.90;99.90;;;;;;5016477;28;20538;-63
2024/03/07 08:22:52;;;;;;;15.93;12.23;;;3.90;99.90;;;;;;5016221;28;20853;-62
2024/03/07 08:25:22;;;;;;;15.80;12.10;;;3.90;99.90;;;;;;5017697;28;20550;-61
2024/03/07 08:27:53;;;;;;;15.53;11.97;;;3.90;99.90;;;;;;5014157;28;20490;-62
2024/03/07 08:30:22;;;;;;;14.13;12.60;;;3.90;99.90;;;;;;5015557;28;21016;-62
2024/03/07 08:32:53;;;;;;;14.20;11.17;;;4.00;99.90;;;;;;5015249;28;20960;-62
2024/03/07 08:35:21;;;;;;;14.87;12.90;;;4.00;99.90;;;;;;5016632;28;20487;-62
2024/03/07 08:37:53;;;;;;;15.83;12.53;;;4.00;99.90;;;;;;5014541;28;20985;-62
2024/03/07 08:40:24;;;;;;;14.93;12.70;;;4.00;99.90;;;;;;5015758;28;20524;-62
2024/03/07 08:42:57;;;;;;;14.07;12.57;;;4.00;99.90;;;;;;5014072;28;20567;-62
2024/03/07 08:45:26;;;;;;;14.90;12.77;;;4.10;99.90;;;;;;5013520;28;20637;-62
2024/03/07 08:47:58;;;;;;;15.77;11.70;;;4.10;99.90;;;;;;5015248;28;20467;-62
2024/03/07 08:50:28;;;;;;;17.67;11.90;;;4.20;99.90;;;;;;5016492;28;20550;-62
2024/03/07 08:52:57;;;;;;;15.60;12.50;;;4.30;99.90;;;;;;5016050;28;20475;-61
2024/03/07 08:55:26;;;;;;;14.10;11.90;;;4.40;99.90;;;;;;5015209;28;20488;-62
2024/03/07 08:57:54;;;;;;;14.27;11.60;;;4.40;99.90;;;;;;5011910;28;20854;-62
2024/03/07 09:00:23;;;;;;;15.17;11.57;;;4.40;99.90;;;;;;5014054;28;20514;-62
2024/03/07 09:02:57;;;;;;;13.30;10.70;;;4.40;99.90;;;;;;5014647;28;20472;-61
2024/03/07 09:05:27;;;;;;;14.67;11.43;;;4.40;99.90;;;;;;5016247;28;20537;-62
2024/03/07 09:07:56;;;;;;;13.80;11.00;;;4.40;99.90;;;;;;5012623;28;20894;-63
2024/03/07 09:10:25;;;;;;;15.53;11.60;;;4.50;99.90;;;;;;5014189;28;20487;-62
2024/03/07 09:12:54;;;;;;;14.10;11.50;;;4.50;99.90;;;;;;5007634;28;20537;-62
2024/03/07 09:15:23;;;;;;;16.63;13.40;;;4.50;99.90;;;;;;5014387;28;20487;-62
2024/03/07 09:17:52;;;;;;;16.97;11.57;;;4.50;99.90;;;;;;5015546;28;20471;-62
2024/03/07 09:20:23;;;;;;;14.03;11.67;;;4.40;99.90;;;;;;5008440;28;20532;-62
2024/03/07 09:22:54;;;;;;;14.90;11.17;;;4.50;99.90;;;;;;5015774;28;20484;-62
2024/03/07 09:25:24;;;;;;;16.27;13.07;;;4.40;99.90;;;;;;5015116;28;21048;-63
2024/03/07 09:27:52;;;;;;;17.20;12.50;;;4.40;99.90;;;;;;5014664;28;20866;-62
2024/03/07 09:30:24;;;;;;;18.00;12.77;;;4.30;99.90;;;;;;5012674;28;20519;-62
2024/03/07 09:32:54;;;;;;;16.00;12.40;;;4.40;99.90;;;;;;5015941;28;20851;-62
2024/03/07 09:35:24;;;;;;;17.03;12.17;;;4.40;99.90;;;;;;5013280;28;20495;-62
2024/03/07 09:37:53;;;;;;;17.27;12.83;;;4.40;99.90;;;;;;5013780;28;20930;-62
2024/03/07 09:40:24;;;;;;;16.80;13.37;;;4.40;99.90;;;;;;5012761;28;20495;-63
2024/03/07 09:42:54;;;;;;;19.47;13.20;;;4.40;99.90;;;;;;5013628;28;20822;-63
2024/03/07 09:45:25;;;;;;;15.80;11.97;;;4.40;99.90;;;;;;5010307;28;20482;-62
2024/03/07 09:47:54;;;;;;;15.30;12.40;;;4.30;99.90;;;;;;5013186;28;20472;-63
2024/03/07 09:50:27;;;;;;;18.17;13.57;;;4.40;99.90;;;;;;5019101;28;20491;-62
2024/03/07 09:52:57;;;;;;;17.13;13.70;;;4.30;99.90;;;;;;5020724;28;20832;-62
2024/03/07 09:55:25;;;;;;;16.87;12.63;;;4.30;99.90;;;;;;5020571;28;20479;-62
2024/03/07 09:57:55;;;;;;;15.83;13.07;;;4.30;99.90;;;;;;5015236;28;20555;-62
2024/03/07 10:00:26;;;;;;;16.40;12.93;;;4.30;99.90;;;;;;5018699;28;20528;-62
2024/03/07 10:02:59;;;;;;;17.67;13.00;;;4.30;99.90;;;;;;5015492;28;20496;-62
2024/03/07 10:05:30;;;;;;;19.20;13.73;;;4.30;99.90;;;;;;5017212;28;20534;-62
2024/03/07 10:08:00;;;;;;;21.63;14.60;;;4.30;99.90;;;;;;5020299;28;20497;-62
2024/03/07 10:10:29;;;;;;;17.97;13.93;;;4.30;99.90;;;;;;5018284;28;20565;-63
2024/03/07 10:12:58;;;;;;;17.10;15.03;;;4.40;99.90;;;;;;5015892;28;20518;-62
2024/03/07 10:15:29;;;;;;;17.70;14.10;;;4.40;99.90;;;;;;5018156;28;21904;-62
2024/03/07 10:17:57;;;;;;;18.80;13.63;;;4.40;99.90;;;;;;5018755;28;20557;-63
2024/03/07 10:20:26;;;;;;;17.33;13.30;;;4.40;99.90;;;;;;5019752;28;20499;-63
2024/03/07 10:22:56;;;;;;;18.00;14.40;;;4.40;99.90;;;;;;5020585;28;20988;-61
2024/03/07 10:25:27;;;;;;;19.27;14.03;;;4.50;99.90;;;;;;5018704;28;20503;-62
2024/03/07 10:27:58;;;;;;;19.43;14.50;;;4.50;99.90;;;;;;5016380;28;20850;-62
2024/03/07 10:30:27;;;;;;;19.80;15.27;;;4.50;99.90;;;;;;5015470;28;20596;-62
2024/03/07 10:32:57;;;;;;;18.80;14.00;;;4.60;99.90;;;;;;5020271;28;20474;-62
2024/03/07 10:35:28;;;;;;;18.53;14.47;;;4.60;99.90;;;;;;5018409;28;20492;-62
2024/03/07 10:38:00;;;;;;;20.53;14.73;;;4.60;99.90;;;;;;5016102;28;20503;-62
2024/03/07 10:40:30;;;;;;;23.40;14.83;;;4.60;99.90;;;;;;5017274;28;21060;-63
2024/03/07 10:43:02;;;;;;;21.23;14.83;;;4.60;99.90;;;;;;5018118;28;20475;-63
2024/03/07 10:45:34;;;;;;;21.70;13.50;;;4.70;99.90;;;;;;5017938;28;20495;-62
2024/03/07 10:48:07;;;;;;;17.93;13.80;;;4.70;99.90;;;;;;5020510;28;20477;-62
2024/03/07 10:50:47;;;;;;;21.57;13.57;;;4.80;99.90;;;;;;5021708;28;20849;-62
2024/03/07 10:53:26;;;;;;;19.27;15.13;;;4.90;99.90;;;;;;5011489;28;20529;-63
2024/03/07 10:56:11;;;;;;;21.30;15.03;;;5.00;99.90;;;;;;5019334;28;20609;-62
2024/03/07 10:58:47;;;;;;;17.13;14.50;;;5.10;99.90;;;;;;5017966;28;20479;-63
2024/03/07 11:01:16;;;;;;;17.40;13.40;;;5.20;99.90;;;;;;5017598;28;20933;-63
2024/03/07 11:03:45;;;;;;;17.50;13.87;;;5.30;99.90;;;;;;5012399;28;20482;-63
2024/03/07 11:06:15;;;;;;;17.10;13.40;;;5.30;99.90;;;;;;5012639;28;21036;-63
2024/03/07 11:08:45;;;;;;;18.10;13.90;;;5.40;99.90;;;;;;5018523;28;20468;-63
2024/03/07 11:11:14;;;;;;;21.40;14.40;;;5.40;99.90;;;;;;5019729;28;20541;-62
2024/03/07 11:13:43;;;;;;;16.90;13.80;;;5.50;99.90;;;;;;5011220;28;20492;-63
2024/03/07 11:16:14;;;;;;;17.97;13.43;;;5.60;99.90;;;;;;5014623;28;20464;-62
2024/03/07 11:18:42;;;;;;;17.20;13.20;;;5.60;99.90;;;;;;5016403;28;20499;-62
2024/03/07 11:21:43;;;;;;;17.50;14.47;;;5.60;99.90;;;;;;5012823;28;20570;-64
2024/03/07 11:24:24;;;;;;;18.67;13.10;;;5.60;99.90;;;;;;5013461;28;21011;-64
2024/03/07 11:26:53;;;;;;;19.73;13.90;;;5.70;99.90;;;;;;5015489;28;20482;-64
2024/03/07 11:29:42;;;;;;;20.50;14.27;;;5.70;99.90;;;;;;5013687;28;21069;-64
2024/03/07 11:32:13;;;;;;;22.47;14.73;;;5.70;99.90;;;;;;5019621;28;20522;-64
2024/03/07 11:34:42;;;;;;;16.63;13.97;;;5.80;99.90;;;;;;5016422;28;20582;-64
2024/03/07 11:37:17;;;;;;;17.30;13.67;;;5.80;99.90;;;;;;5015646;28;20472;-62
2024/03/07 11:39:47;;;;;;;16.63;12.97;;;5.80;99.90;;;;;;5013206;28;20490;-64
2024/03/07 11:42:26;;;;;;;20.27;15.70;;;5.90;99.90;;;;;;5015719;28;21148;-63
2024/03/07 11:44:56;;;;;;;19.50;14.07;;;5.90;99.90;;;;;;5014542;28;20490;-62
2024/03/07 11:47:25;;;;;;;17.03;14.20;;;6.00;99.90;;;;;;5016215;28;20558;-63
2024/03/07 11:49:53;;;;;;;18.90;14.50;;;6.00;99.90;;;;;;5015599;28;20484;-63
2024/03/07 11:52:21;;;;;;;21.20;14.33;;;6.00;99.90;;;;;;5015900;28;20602;-63
2024/03/07 11:54:52;;;;;;;20.00;14.10;;;6.00;99.90;;;;;;5015112;28;20583;-63
2024/03/07 11:57:26;;;;;;;18.73;15.30;;;6.10;99.90;;;;;;5014390;28;20983;-62
2024/03/07 11:59:54;;;;;;;20.67;15.60;;;6.10;99.90;;;;;;5016913;28;20493;-62
2024/03/07 12:02:22;;;;;;;18.37;14.77;;;6.20;99.90;;;;;;5015342;28;21083;-62
2024/03/07 12:04:51;;;;;;;19.57;14.83;;;6.20;99.90;;;;;;5013665;28;20492;-62
2024/03/07 12:07:22;;;;;;;19.00;13.90;;;6.20;99.90;;;;;;5015999;28;20526;-62
2024/03/07 12:09:55;;;;;;;18.63;13.93;;;6.20;99.90;;;;;;5015929;28;20491;-63
2024/03/07 12:12:24;;;;;;;19.90;14.43;;;6.20;99.90;;;;;;5015661;28;20483;-63
2024/03/07 12:14:53;;;;;;;19.47;14.30;;;6.30;99.90;;;;;;5015608;28;20904;-63
2024/03/07 12:17:22;;;;;;;18.60;15.10;;;6.30;99.90;;;;;;5015427;28;20479;-63
2024/03/07 12:19:52;;;;;;;20.37;15.00;;;6.30;99.90;;;;;;5015576;28;20496;-63
2024/03/07 12:22:22;;;;;;;19.83;14.50;;;6.30;99.90;;;;;;5017242;28;20518;-63
2024/03/07 12:25:03;;;;;;;19.60;14.77;;;6.40;99.90;;;;;;5016459;28;20487;-64
2024/03/07 12:27:31;;;;;;;24.00;16.10;;;6.40;99.90;;;;;;5018204;28;20478;-63
2024/03/07 12:30:01;;;;;;;19.03;14.40;;;6.40;99.90;;;;;;5017051;28;21028;-63
2024/03/07 12:32:31;;;;;;;20.57;14.93;;;6.40;99.90;;;;;;5018210;28;20460;-64
2024/03/07 12:34:59;;;;;;;18.20;14.90;;;6.40;99.90;;;;;;5015511;28;20487;-64
2024/03/07 12:37:29;;;;;;;21.53;15.20;;;6.40;99.90;;;;;;5012391;28;20468;-62
2024/03/07 12:40:01;;;;;;;19.27;15.60;;;6.40;99.90;;;;;;5017804;28;20574;-63
2024/03/07 12:42:32;;;;;;;20.17;14.57;;;6.40;99.90;;;;;;5019024;28;20575;-62
2024/03/07 12:45:00;;;;;;;19.00;15.10;;;6.40;99.90;;;;;;5016058;28;20511;-63
2024/03/07 12:47:28;;;;;;;20.53;16.97;;;6.40;99.90;;;;;;5017352;28;20480;-62
2024/03/07 12:49:58;;;;;;;21.40;16.23;;;6.50;99.90;;;;;;5016157;28;20484;-62